...

 METAR AND TAF INFORMATION
METAR FOR ENTO
ADDS - METARS form results

(2131 UTC 19 May 2019)
Data provider http://aviationweather.gov/metar/data/
 
METAR text: ENTO 192120Z AUTO 01004KT 9999 NCD 13/12 Q1013
Conditions at: ENTO (TORP (CIV/NOR-AF, NO) observed 2120 UTC 19 May 2019
Temperature: 13.0°C (55°F)
Dewpoint: 12.0°C (54°F) [RH = 94%]
Pressure (altimeter): 29.91 inches Hg (1013.0 mb)
Winds: from the N (10 degrees) at 5 MPH (4 knots; 2.1 m/s)
Visibility: 6 or more miles (10+ km)
Ceiling: at least 12,000 feet AGL
Clouds: sky clear below 12,000 feet AGL
Weather: no significant weather observed at this time

METAR text: ENTO 192050Z 04004KT CAVOK 14/12 Q1013 NOSIG
Conditions at: ENTO (TORP (CIV/NOR-AF, NO) observed 2050 UTC 19 May 2019
Temperature: 14.0°C (57°F)
Dewpoint: 12.0°C (54°F) [RH = 88%]
Pressure (altimeter): 29.91 inches Hg (1013.0 mb)
Winds: from the NE (40 degrees) at 5 MPH (4 knots; 2.1 m/s)
Visibility: 6 or more miles (10+ km)
Ceiling: ceiling and visibility are OK
Clouds: unknown
Weather: no significant weather observed at this time

Forecast for: ENTO (TORP (CIV/NOR-AF, NO)
Text: TAF ENTO 1918/2018 02008KT 9999 BKN040
Forecast period: 1800 UTC 19 May 2019 to 0200 UTC 20 May 2019
Forecast type: FROM: standard forecast or significant change
Winds: from the NNE (20 degrees) at 9 MPH (8 knots; 4.1 m/s)
Visibility: 6 or more miles 10+ km)
Ceiling: 4000 feet AGL
Clouds: broken clouds at 4000 feet AGL
Weather: no significant weather forecast for this period
Text: BECMG 2002/2004 02015KT
Forecast period: 0200 to 1800 UTC 20 May 2019
Forecast type: BECOMING: Conditions expected to become as follows by 0400 UTC 20 May 2019
Winds: from the NNE (20 degrees) at 17 MPH (15 knots; 7.7 m/s)
Visibility: 6 or more miles 10+ km)
Ceiling: 4000 feet AGL
Clouds: broken clouds at 4000 feet AGL
Weather: no significant weather forecast for this period
Text: TEMPO 2007/2018 4000 RA SHRA BKN008 SCT020CB
Forecast period: 0700 to 1800 UTC 20 May 2019
Forecast type: TEMPORARY: The following changes expected for less than half the time period
Visibility: 2.49 miles (4.01 km)
Ceiling: 800 feet AGL
Clouds: broken clouds at 800 feet AGL
scattered clouds at 2000 feet AGL
Weather: RA SHRA  (moderate rain, rain showers)

 AIRPORT MAP

 RUNWAY INFORMATION
Runway 18 Runway length 9675 ft Runway width 148 ft
Runway elevation 282 ft Runway displaced threshold 1231 ft Runway heading 179
Runway 36 Runway length 9675 ft Runway width 148 ft
Runway elevation 255 ft Runway displaced threshold 1231 ft Runway heading 359

 AIRPORT FREQUENCIES
Type ATIS Name ATIS Frequency 119.075 MHZ
Type GND Name GND Frequency 126.175 MHZ
Type TCA Name FARRIS TCA Frequency 134.05 MHZ
Type TWR Name TWR Frequency 118.65 MHZ

 AIRPORT NEAR NAVIGATION AIDS
Type VOR-DME Name Torp Frequency 113850 KHZ